Time;durP1;ratioP1;P1;durP2;ratioP2;P2;SDS_P1;SDS_P2;PMS_P1;PMS_P2;Temp;Humidity;BMP_temperature;BMP_pressure;BME280_temperature;BME280_humidity;BME280_pressure;Samples;Min_cycle;Max_cycle;Signal;HPM_P1;HPM_P2
2022/03/13 00:01:22;;;;;;;51.08;30.10;;;;;;;0.36;57.38;101118.92;2605491;91;21652;-67
2022/03/13 00:05:24;;;;;;;56.30;32.00;;;;;;;0.39;57.15;101120.19;2605705;90;21590;-67
2022/03/13 00:09:26;;;;;;;56.35;33.50;;;;;;;0.39;56.71;101117.56;2605486;91;21137;-68
2022/03/13 00:13:32;;;;;;;52.83;30.23;;;;;;;0.42;56.39;101110.94;2605213;91;22231;-67
2022/03/13 00:17:33;;;;;;;54.88;42.75;;;;;;;0.46;56.95;101115.62;2605504;91;21148;-67
2022/03/13 00:21:35;;;;;;;62.03;33.85;;;;;;;0.42;57.21;101116.61;2605542;91;21105;-67
2022/03/13 00:25:37;;;;;;;62.05;31.25;;;;;;;0.35;57.25;101122.44;2605147;91;21451;-68
2022/03/13 00:29:41;;;;;;;41.37;25.68;;;;;;;0.32;57.18;101117.30;2605489;91;21129;-67
2022/03/13 00:33:43;;;;;;;52.35;29.40;;;;;;;0.38;56.97;101117.12;2605655;91;21166;-67
2022/03/13 00:37:44;;;;;;;42.80;26.50;;;;;;;0.41;56.80;101115.77;2605350;90;21625;-67
2022/03/13 00:41:46;;;;;;;46.55;27.07;;;;;;;0.44;56.46;101123.12;2605497;91;21345;-67
2022/03/13 00:45:48;;;;;;;45.33;25.72;;;;;;;0.47;56.60;101125.19;2605514;91;21177;-67
2022/03/13 00:49:50;;;;;;;40.95;23.32;;;;;;;0.44;57.02;101120.04;2605677;91;21101;-67
2022/03/13 00:53:52;;;;;;;44.45;24.95;;;;;;;0.36;57.28;101122.02;2605276;91;21493;-67
2022/03/13 00:57:54;;;;;;;41.58;27.52;;;;;;;0.27;57.73;101117.41;2605813;91;21113;-68
2022/03/13 01:01:56;;;;;;;50.05;28.38;;;;;;;0.14;57.93;101122.09;2605192;91;21061;-67
2022/03/13 01:05:58;;;;;;;43.52;24.90;;;;;;;0.04;58.33;101120.62;2604868;90;21115;-68
2022/03/13 01:10:00;;;;;;;62.83;31.95;;;;;;;-0.08;58.46;101118.29;2605305;91;21153;-68
2022/03/13 01:14:03;;;;;;;39.98;26.12;;;;;;;-0.18;58.38;101115.91;2604828;91;21133;-68
2022/03/13 01:18:05;;;;;;;49.27;26.77;;;;;;;-0.18;58.19;101116.34;2605346;91;21089;-67
2022/03/13 01:22:07;;;;;;;55.05;29.48;;;;;;;-0.15;58.26;101117.14;2605523;90;21137;-68
2022/03/13 01:26:25;;;;;;;44.50;27.15;;;;;;;-0.15;58.18;101107.11;2600147;91;21141;-67
2022/03/13 01:30:28;;;;;;;42.27;26.37;;;;;;;-0.11;58.12;101103.98;2594337;91;21085;-68
2022/03/13 01:34:50;;;;;;;46.92;28.45;;;;;;;-0.10;57.64;101107.01;2594515;91;21069;-67
2022/03/13 01:38:59;;;;;;;38.58;25.35;;;;;;;-0.08;57.79;101106.52;2594401;91;21649;-67
2022/03/13 01:43:01;;;;;;;45.78;26.57;;;;;;;-0.07;57.66;101100.39;2594555;91;21180;-68
2022/03/13 01:47:05;;;;;;;39.75;24.80;;;;;;;-0.02;57.54;101092.84;2594474;91;21126;-68
2022/03/13 01:51:07;;;;;;;45.52;26.27;;;;;;;0.03;57.55;101087.94;2594462;91;21093;-67
2022/03/13 01:55:10;;;;;;;50.65;26.90;;;;;;;0.06;57.50;101083.94;2594633;91;21089;-68
2022/03/13 01:59:14;;;;;;;46.23;27.58;;;;;;;0.06;57.35;101085.25;2594541;91;21063;-68
2022/03/13 02:03:17;;;;;;;47.93;25.90;;;;;;;0.07;57.53;101082.60;2594618;91;21105;-68
2022/03/13 02:07:21;;;;;;;50.83;27.55;;;;;;;0.08;57.73;101080.39;2594196;91;21654;-67
2022/03/13 02:11:36;;;;;;;43.73;25.97;;;;;;;-0.03;58.14;101075.87;2594638;91;21117;-67
2022/03/13 02:15:32;;;;;;;54.18;26.02;;;;;;;-0.16;58.48;101072.27;2594068;91;21101;-67
2022/03/13 02:19:34;;;;;;;39.23;22.15;;;;;;;-0.31;59.19;101068.24;2594224;91;21121;-67
2022/03/13 02:23:36;;;;;;;46.30;26.52;;;;;;;-0.62;59.78;101065.06;2594245;91;21128;-67
2022/03/13 02:27:38;;;;;;;43.65;24.87;;;;;;;-0.64;59.22;101069.89;2603254;90;21169;-68
2022/03/13 02:31:41;;;;;;;37.60;22.13;;;;;;;-0.68;58.96;101070.86;2605508;90;21637;-67
2022/03/13 02:36:01;;;;;;;41.60;25.75;;;;;;;-0.79;59.49;101068.49;2605460;91;21181;-68
2022/03/13 02:40:05;;;;;;;42.43;24.65;;;;;;;-0.81;60.06;101068.52;2605606;91;21185;-67
2022/03/13 02:44:09;;;;;;;43.25;24.18;;;;;;;-0.89;60.38;101074.36;2605273;91;21102;-67
2022/03/13 02:48:12;;;;;;;37.73;21.87;;;;;;;-0.95;59.81;101056.22;2605678;91;21109;-67
2022/03/13 02:52:14;;;;;;;34.18;22.67;;;;;;;-0.95;59.81;101056.22;2605576;91;21157;-68
2022/03/13 02:56:16;;;;;;;37.33;24.60;;;;;;;-0.68;59.56;101072.17;2605659;90;21740;-68
2022/03/13 03:00:19;;;;;;;33.53;22.50;;;;;;;-0.68;59.56;101072.17;2605626;91;21680;-67
2022/03/13 03:04:25;;;;;;;38.13;25.65;;;;;;;-0.71;60.09;101053.49;2605287;91;21077;-68
2022/03/13 03:08:26;;;;;;;52.20;28.67;;;;;;;-0.56;60.04;101061.89;2605486;91;21137;-67
2022/03/13 03:12:28;;;;;;;31.15;22.42;;;;;;;-0.61;60.52;101065.91;2605813;91;21093;-67
2022/03/13 03:16:30;;;;;;;52.05;29.52;;;;;;;-0.82;61.19;101068.10;2605083;91;21149;-67
2022/03/13 03:20:32;;;;;;;51.80;25.80;;;;;;;-1.00;62.14;101058.92;2605359;91;21161;-67
2022/03/13 03:24:34;;;;;;;40.80;25.68;;;;;;;-1.08;62.72;101056.47;2605396;91;21153;-67
2022/03/13 03:28:36;;;;;;;51.10;28.90;;;;;;;-1.03;62.05;101043.32;2594652;91;21109;-68
2022/03/13 03:32:38;;;;;;;47.10;29.42;;;;;;;-0.91;61.86;101046.95;2594604;90;21066;-67
2022/03/13 03:36:46;;;;;;;41.55;24.95;;;;;;;-0.91;61.86;101046.95;2594245;90;21668;-67
2022/03/13 03:40:48;;;;;;;47.53;26.93;;;;;;;-0.91;61.89;101050.03;2594534;91;21068;-68
2022/03/13 03:44:49;;;;;;;41.33;23.95;;;;;;;-0.80;62.18;101062.39;2594173;90;21594;-67
2022/03/13 03:48:51;;;;;;;43.25;25.97;;;;;;;-0.79;62.32;101058.88;2594172;91;21054;-67
2022/03/13 03:52:55;;;;;;;33.65;21.70;;;;;;;-0.75;61.79;101057.95;2594372;91;21070;-67
2022/03/13 03:56:56;;;;;;;39.30;24.82;;;;;;;-0.65;61.36;101053.80;2594602;90;21089;-68
2022/03/13 04:00:58;;;;;;;38.73;23.90;;;;;;;-0.67;61.21;101055.16;2594913;91;21134;-67
2022/03/13 04:05:00;;;;;;;39.15;23.12;;;;;;;-0.67;61.21;101049.06;2595649;91;21116;-68
2022/03/13 04:09:02;;;;;;;40.40;24.75;;;;;;;-0.68;60.69;101048.66;2594720;91;21066;-68
2022/03/13 04:13:04;;;;;;;44.13;22.87;;;;;;;-0.68;60.84;101049.96;2595058;91;21113;-68
2022/03/13 04:17:05;;;;;;;39.40;22.73;;;;;;;-0.82;61.67;101047.66;2595008;91;21615;-67
2022/03/13 04:21:07;;;;;;;37.93;21.37;;;;;;;-1.00;62.06;101047.17;2594130;91;21570;-68
2022/03/13 04:25:10;;;;;;;38.90;25.68;;;;;;;-1.17;62.32;101048.84;2594465;90;21161;-68
2022/03/13 04:29:12;;;;;;;47.62;26.85;;;;;;;-1.30;62.91;101039.95;2594431;91;21113;-68
2022/03/13 04:33:16;;;;;;;38.63;23.10;;;;;;;-1.12;62.23;101058.73;2594384;91;21347;-67
2022/03/13 04:37:18;;;;;;;45.75;23.35;;;;;;;-1.03;62.19;101058.99;2594283;91;21363;-68
2022/03/13 04:41:20;;;;;;;39.85;23.47;;;;;;;-1.18;62.27;101031.00;2594248;91;21605;-68
2022/03/13 04:45:24;;;;;;;50.50;25.85;;;;;;;-1.11;62.32;101055.66;2594396;91;21660;-67
2022/03/13 04:49:25;;;;;;;45.43;29.42;;;;;;;-1.11;62.43;101056.97;2594534;91;21122;-67
2022/03/13 04:53:28;;;;;;;34.38;21.42;;;;;;;-1.06;62.28;101063.82;2594216;90;21089;-68
2022/03/13 04:57:30;;;;;;;40.58;23.95;;;;;;;-0.95;61.72;101070.59;2594243;91;21189;-68
2022/03/13 05:01:32;;;;;;;30.82;18.52;;;;;;;-0.86;61.09;101065.15;2594160;91;21094;-68
2022/03/13 05:05:34;;;;;;;34.35;21.57;;;;;;;-0.97;61.67;101063.23;2594191;90;21145;-68
2022/03/13 05:09:36;;;;;;;38.02;21.75;;;;;;;-0.97;61.34;101072.38;2594327;91;21101;-68
2022/03/13 05:13:38;;;;;;;39.45;26.50;;;;;;;-0.87;61.13;101068.66;2594110;91;21103;-68
2022/03/13 05:17:39;;;;;;;33.25;23.30;;;;;;;-0.73;61.14;101068.34;2594232;91;21093;-68
2022/03/13 05:21:41;;;;;;;34.38;24.72;;;;;;;-0.66;61.24;101077.79;2594273;91;21062;-68
2022/03/13 05:25:43;;;;;;;42.85;23.70;;;;;;;-0.65;61.20;101079.51;2594961;91;21086;-68
2022/03/13 05:29:44;;;;;;;45.70;28.35;;;;;;;-0.62;61.10;101078.55;2605529;91;21447;-68
2022/03/13 05:33:47;;;;;;;44.67;21.87;;;;;;;-0.68;61.36;101078.70;2605381;91;21101;-68
2022/03/13 05:37:49;;;;;;;38.73;21.48;;;;;;;-0.76;61.87;101080.17;2605352;91;21113;-68
2022/03/13 05:41:50;;;;;;;40.50;23.65;;;;;;;-0.72;62.32;101084.44;2605262;91;21581;-68
2022/03/13 05:45:52;;;;;;;37.48;21.52;;;;;;;-0.35;61.39;101082.76;2605718;91;21415;-68
2022/03/13 05:49:54;;;;;;;36.80;22.80;;;;;;;0.01;60.23;101081.89;2605470;91;21161;-68
2022/03/13 05:53:56;;;;;;;41.37;24.07;;;;;;;0.27;59.98;101086.00;2605527;91;21593;-68
2022/03/13 05:58:00;;;;;;;37.05;21.45;;;;;;;0.47;59.32;101087.70;2605441;91;21100;-68
2022/03/13 06:02:04;;;;;;;39.27;24.47;;;;;;;0.64;58.65;101087.23;2605829;91;21058;-68
2022/03/13 06:06:06;;;;;;;38.83;23.55;;;;;;;0.67;58.25;101081.90;2605668;91;21174;-68
2022/03/13 06:10:09;;;;;;;40.08;24.10;;;;;;;0.66;58.30;101087.60;2606153;91;21065;-68
2022/03/13 06:14:10;;;;;;;32.42;22.60;;;;;;;0.77;58.87;101093.85;2605709;91;22232;-68
2022/03/13 06:18:12;;;;;;;50.40;20.45;;;;;;;0.90;58.36;101093.05;2605791;90;21121;-68
2022/03/13 06:22:14;;;;;;;31.77;18.55;;;;;;;1.08;57.91;101101.28;2606121;91;21154;-67
2022/03/13 06:26:16;;;;;;;35.52;22.07;;;;;;;1.24;57.83;101109.55;2604380;91;21145;-67
2022/03/13 06:30:19;;;;;;;36.15;21.82;;;;;;;1.47;57.44;101115.86;2595213;91;21093;-67
2022/03/13 06:34:22;;;;;;;36.88;20.08;;;;;;;1.63;57.19;101121.51;2595197;91;21185;-67
2022/03/13 06:38:23;;;;;;;33.10;19.55;;;;;;;1.78;56.80;101115.78;2595130;91;21070;-68
2022/03/13 06:42:25;;;;;;;26.80;17.35;;;;;;;1.94;56.01;101120.08;2595178;91;21084;-68
2022/03/13 06:46:26;;;;;;;33.38;17.45;;;;;;;2.00;54.96;101117.72;2595393;91;21160;-68
2022/03/13 06:50:28;;;;;;;30.72;17.52;;;;;;;2.19;54.68;101118.42;2596091;91;21105;-68
2022/03/13 06:54:30;;;;;;;28.62;18.52;;;;;;;2.48;53.86;101117.87;2596050;91;21133;-67
2022/03/13 06:58:32;;;;;;;28.40;16.20;;;;;;;2.75;53.66;101119.11;2595610;91;21117;-68
2022/03/13 07:02:33;;;;;;;29.92;18.67;;;;;;;3.08;52.45;101122.75;2596263;90;21125;-68
2022/03/13 07:06:35;;;;;;;25.00;15.32;;;;;;;3.29;51.66;101128.98;2596510;91;21054;-68
2022/03/13 07:10:37;;;;;;;28.77;16.48;;;;;;;3.52;51.35;101126.77;2596877;91;21073;-67
2022/03/13 07:14:44;;;;;;;25.30;19.35;;;;;;;3.68;51.03;101134.94;2596442;91;21093;-68
2022/03/13 07:18:43;;;;;;;27.05;18.73;;;;;;;3.80;50.77;101135.35;2596292;90;21093;-68
2022/03/13 07:22:45;;;;;;;25.72;15.80;;;;;;;3.80;50.93;101129.64;2596806;91;21073;-68
2022/03/13 07:26:47;;;;;;;29.70;18.27;;;;;;;3.81;50.59;101141.02;2596426;90;21073;-68
2022/03/13 07:30:48;;;;;;;28.87;18.92;;;;;;;3.84;50.61;101133.86;2596841;90;21097;-68
2022/03/13 07:34:50;;;;;;;30.32;20.57;;;;;;;3.97;50.71;101133.38;2596800;91;21085;-68
2022/03/13 07:38:53;;;;;;;24.27;16.70;;;;;;;4.05;49.97;101131.75;2596837;91;21089;-67
2022/03/13 07:42:54;;;;;;;23.35;15.43;;;;;;;4.25;50.77;101134.86;2596763;91;21166;-68
2022/03/13 07:46:56;;;;;;;26.62;16.05;;;;;;;4.43;50.03;101134.09;2596685;91;21093;-68
2022/03/13 07:50:58;;;;;;;28.25;18.30;;;;;;;4.61;49.82;101134.67;2596599;91;21197;-68
2022/03/13 07:55:00;;;;;;;26.17;16.10;;;;;;;4.88;49.61;101140.52;2596842;91;21110;-68
2022/03/13 07:59:02;;;;;;;28.15;17.40;;;;;;;5.06;48.97;101131.39;2596964;91;21094;-67
2022/03/13 08:03:03;;;;;;;23.30;14.07;;;;;;;5.36;49.31;101136.20;2597331;91;21141;-67
2022/03/13 08:07:05;;;;;;;19.57;13.85;;;;;;;5.54;47.15;101131.84;2596963;91;21089;-67
2022/03/13 08:11:07;;;;;;;25.37;14.93;;;;;;;5.67;46.73;101133.42;2597556;91;21007;-67
2022/03/13 08:15:10;;;;;;;21.62;15.58;;;;;;;5.77;46.83;101129.88;2597614;90;21149;-67
2022/03/13 08:19:11;;;;;;;18.62;13.10;;;;;;;5.91;46.17;101131.87;2597459;91;21106;-67
2022/03/13 08:23:13;;;;;;;23.18;14.35;;;;;;;6.05;45.23;101132.06;2597519;90;21109;-68
2022/03/13 08:27:15;;;;;;;20.10;14.13;;;;;;;6.27;44.83;101129.67;2597706;91;21149;-67
2022/03/13 08:31:17;;;;;;;21.23;13.95;;;;;;;6.55;44.18;101118.55;2598144;91;21042;-67
2022/03/13 08:35:20;;;;;;;17.30;10.88;;;;;;;6.80;42.82;101112.45;2598141;91;21089;-68
2022/03/13 08:39:21;;;;;;;16.37;11.97;;;;;;;7.08;41.95;101112.32;2598129;91;21114;-67
2022/03/13 08:43:23;;;;;;;16.42;12.73;;;;;;;7.36;41.70;101114.77;2598518;91;21146;-67
2022/03/13 08:47:25;;;;;;;17.32;11.03;;;;;;;7.43;39.80;101107.73;2611852;88;21165;-67
2022/03/13 08:51:28;;;;;;;12.40;9.53;;;;;;;7.47;39.28;101103.58;2597722;91;23539;-67
2022/03/13 08:55:30;;;;;;;14.78;9.78;;;;;;;7.60;39.34;101101.09;2625943;88;21082;-67
2022/03/13 08:59:32;;;;;;;14.95;11.03;;;;;;;7.70;39.04;101103.62;2653804;88;21107;-66
2022/03/13 09:03:34;;;;;;;14.50;9.10;;;;;;;7.82;38.54;101104.23;2673966;88;21952;-66
2022/03/13 09:07:35;;;;;;;11.35;8.45;;;;;;;8.01;39.28;101104.50;2627550;89;21094;-67
2022/03/13 09:11:38;;;;;;;15.98;10.35;;;;;;;8.02;37.88;101098.25;2573985;92;21079;-67
2022/03/13 09:15:40;;;;;;;23.00;13.53;;;;;;;8.06;37.85;101101.13;2581829;89;21114;-66
2022/03/13 09:19:42;;;;;;;38.78;19.17;;;;;;;8.10;37.61;101107.95;2683896;88;21047;-66
2022/03/13 09:23:43;;;;;;;30.97;18.12;;;;;;;8.12;37.43;101107.39;2689486;88;21147;-67
2022/03/13 09:27:45;;;;;;;22.25;13.35;;;;;;;8.13;37.55;101109.09;2689251;88;21142;-66
2022/03/13 09:31:47;;;;;;;26.23;16.00;;;;;;;8.25;38.21;101107.97;2689595;88;21075;-66
2022/03/13 09:35:51;;;;;;;25.35;15.53;;;;;;;8.50;37.81;101105.24;2689887;88;21067;-66
2022/03/13 09:39:52;;;;;;;19.10;12.93;;;;;;;8.52;36.62;101106.00;2689684;88;21066;-66
2022/03/13 09:43:54;;;;;;;30.17;16.37;;;;;;;8.55;36.95;101108.00;2690123;88;21132;-65
2022/03/13 09:47:56;;;;;;;20.92;13.18;;;;;;;8.60;36.89;101110.35;2689806;88;21526;-65
2022/03/13 09:51:59;;;;;;;11.57;8.73;;;;;;;8.60;36.28;101101.07;2690087;88;21344;-65
2022/03/13 09:56:03;;;;;;;14.45;9.45;;;;;;;8.63;35.96;101108.00;2689709;87;21119;-65
2022/03/13 10:00:09;;;;;;;18.45;12.05;;;;;;;8.66;36.10;101106.48;2689796;88;21139;-65
2022/03/13 10:04:11;;;;;;;10.13;7.55;;;;;;;8.70;36.86;101104.89;2689635;88;21043;-65
2022/03/13 10:08:15;;;;;;;15.40;12.28;;;;;;;8.63;36.51;101099.55;2689900;88;21075;-65
2022/03/13 10:12:17;;;;;;;19.98;12.07;;;;;;;8.75;37.01;101102.42;2690027;88;21070;-65
2022/03/13 10:16:24;;;;;;;19.32;10.23;;;;;;;8.90;35.38;101115.20;2690039;87;21052;-65
2022/03/13 10:20:28;;;;;;;11.12;8.33;;;;;;;9.03;36.50;101098.05;2688752;88;21023;-65
2022/03/13 10:24:33;;;;;;;16.77;11.88;;;;;;;9.09;35.23;101091.05;2689605;88;21091;-66
2022/03/13 10:28:37;;;;;;;12.75;10.82;;;;;;;9.20;34.35;101100.50;2688597;88;21135;-65
2022/03/13 10:32:39;;;;;;;12.25;9.05;;;;;;;9.28;34.88;101100.88;2658425;88;21079;-65
2022/03/13 10:36:45;;;;;;;9.28;8.40;;;;;;;9.40;34.88;101093.06;2646240;90;21169;-65
2022/03/13 10:40:48;;;;;;;16.12;6.83;;;;;;;9.49;34.22;101080.54;2657877;89;21111;-68
2022/03/13 10:44:52;;;;;;;10.90;8.08;;;;;;;9.42;33.34;101080.08;2614759;91;21079;-68
2022/03/13 10:48:54;;;;;;;12.53;8.93;;;;;;;9.60;32.79;101080.30;2614472;91;21135;-69
2022/03/13 10:53:01;;;;;;;13.93;8.55;;;;;;;9.73;33.17;101082.55;2614661;91;21016;-68
2022/03/13 10:57:11;;;;;;;12.28;9.05;;;;;;;9.83;32.95;101090.30;2612218;91;21068;-68
2022/03/13 11:01:16;;;;;;;13.50;9.38;;;;;;;9.86;34.28;101075.94;2635605;90;21042;-68
2022/03/13 11:05:18;;;;;;;14.85;8.13;;;;;;;9.95;33.30;101085.10;2649556;90;21069;-68
2022/03/13 11:09:20;;;;;;;15.65;10.72;;;;;;;10.10;34.80;101082.76;2682553;88;21046;-68
2022/03/13 11:13:27;;;;;;;12.98;9.75;;;;;;;10.22;34.28;101055.81;2650161;90;21045;-68
2022/03/13 11:17:35;;;;;;;13.18;9.13;;;;;;;10.35;34.46;101066.95;2682774;88;21074;-68
2022/03/13 11:21:37;;;;;;;15.88;11.30;;;;;;;10.36;34.13;101072.64;2682485;88;21059;-69
2022/03/13 11:25:40;;;;;;;15.68;9.78;;;;;;;10.43;35.05;101064.17;2712692;87;21732;-69
2022/03/13 11:29:52;;;;;;;14.40;9.30;;;;;;;10.63;34.21;101064.59;2701996;87;21144;-65
2022/03/13 11:34:13;;;;;;;19.90;13.25;;;;;;;10.70;33.48;101057.87;2671371;89;21041;-65
2022/03/13 11:38:18;;;;;;;43.85;13.38;;;;;;;10.70;33.26;101043.70;2671748;88;21112;-65
2022/03/13 11:42:23;;;;;;;13.53;9.75;;;;;;;10.88;32.88;101044.70;2671493;89;21112;-66
2022/03/13 11:46:40;;;;;;;17.98;10.23;;;;;;;10.90;33.04;101041.44;2671848;89;21033;-65
2022/03/13 11:51:01;;;;;;;22.73;9.55;;;;;;;11.02;33.54;101034.42;2651993;89;21557;-67
2022/03/13 11:55:05;;;;;;;13.53;10.00;;;;;;;11.24;34.51;101033.23;2671108;89;21131;-65
2022/03/13 11:59:19;;;;;;;15.70;11.05;;;;;;;11.29;33.14;101036.86;2648896;89;21106;-67
2022/03/13 12:03:21;;;;;;;14.38;11.85;;;;;;;11.36;33.15;101028.81;2676843;89;21074;-66
2022/03/13 12:07:27;;;;;;;30.25;19.23;;;;;;;11.43;33.24;101026.55;2677027;88;21018;-66
2022/03/13 12:11:39;;;;;;;16.85;12.65;;;;;;;11.55;33.54;101018.96;2677024;89;21050;-67
2022/03/13 12:15:42;;;;;;;37.35;25.55;;;;;;;11.67;34.16;101022.52;2676934;88;21114;-66
2022/03/13 12:19:45;;;;;;;14.23;11.05;;;;;;;11.87;35.08;101020.17;2657594;87;21122;-66
2022/03/13 12:23:48;;;;;;;21.45;13.60;;;;;;;11.97;33.32;101007.86;2643926;87;21097;-66
2022/03/13 12:27:49;;;;;;;12.78;10.25;;;;;;;12.13;33.15;100999.55;2662995;87;21078;-66
2022/03/13 12:31:53;;;;;;;10.03;8.93;;;;;;;12.18;32.28;100999.20;2650282;89;21086;-66
2022/03/13 12:36:01;;;;;;;12.30;9.45;;;;;;;12.27;32.50;100978.97;2628005;89;21126;-66
2022/03/13 12:40:02;;;;;;;10.95;9.00;;;;;;;12.39;32.35;100987.83;2574861;91;21120;-66
2022/03/13 12:44:05;;;;;;;15.98;10.95;;;;;;;12.48;32.05;100991.59;2617367;91;21045;-65
2022/03/13 12:48:13;;;;;;;12.25;8.95;;;;;;;12.51;31.33;100996.67;2578713;89;21086;-66
2022/03/13 12:52:15;;;;;;;12.13;8.63;;;;;;;12.55;31.43;100993.66;2632273;89;21050;-66
2022/03/13 12:56:18;;;;;;;17.02;12.13;;;;;;;12.58;31.26;100995.24;2635107;88;21035;-66
2022/03/13 13:00:21;;;;;;;14.83;9.53;;;;;;;12.56;32.03;100999.83;2592897;90;21610;-67
2022/03/13 13:04:23;;;;;;;28.07;12.47;;;;;;;12.57;31.08;101002.38;2634131;89;21057;-66
2022/03/13 13:08:29;;;;;;;15.45;9.08;;;;;;;12.54;32.38;100992.42;2604826;89;21069;-66
2022/03/13 13:12:33;;;;;;;29.87;20.10;;;;;;;12.49;32.18;100993.28;2638393;88;21077;-66
2022/03/13 13:16:36;;;;;;;20.00;13.40;;;;;;;12.62;31.92;100991.82;2632675;88;21081;-67
2022/03/13 13:20:38;;;;;;;14.38;9.48;;;;;;;12.65;31.75;100997.78;2631659;88;21082;-66
2022/03/13 13:24:54;;;;;;;23.22;12.35;;;;;;;12.74;31.93;100988.66;2642713;88;21067;-65
2022/03/13 13:28:59;;;;;;;16.70;8.73;;;;;;;12.82;32.28;100988.91;2657708;88;21063;-67
2022/03/13 13:33:19;;;;;;;17.02;11.45;;;;;;;12.67;32.27;100981.63;2673467;88;21092;-66
2022/03/13 13:37:21;;;;;;;21.70;13.95;;;;;;;12.74;31.08;100980.66;2685841;88;21679;-67
2022/03/13 13:41:24;;;;;;;18.27;12.23;;;;;;;12.82;31.80;100983.57;2685629;88;21041;-67
2022/03/13 13:45:31;;;;;;;15.72;10.05;;;;;;;12.90;32.75;100978.45;2681668;87;21095;-67
2022/03/13 13:49:34;;;;;;;18.75;14.10;;;;;;;12.91;31.47;100982.81;2685494;88;21029;-67
2022/03/13 13:53:52;;;;;;;24.65;16.45;;;;;;;12.85;31.26;100987.33;2660162;88;21024;-67
2022/03/13 13:58:34;;;;;;;22.73;13.18;;;;;;;12.87;31.68;100985.38;2710209;87;21074;-67
2022/03/13 14:02:31;;;;;;;20.77;15.23;;;;;;;12.86;30.94;100991.69;2704319;86;21628;-67
2022/03/13 14:06:35;;;;;;;14.23;10.48;;;;;;;12.88;31.29;100984.41;2685567;88;21025;-67
2022/03/13 14:10:37;;;;;;;16.35;10.82;;;;;;;12.94;31.82;100976.39;2685453;88;21136;-67
2022/03/13 14:14:39;;;;;;;15.83;11.10;;;;;;;12.94;31.52;100978.55;2685454;88;21048;-66
2022/03/13 14:18:40;;;;;;;17.45;11.95;;;;;;;12.93;32.14;100979.53;2704147;87;21015;-67
2022/03/13 14:22:43;;;;;;;18.57;12.20;;;;;;;12.86;32.06;100977.01;2729573;86;21082;-67
2022/03/13 14:26:45;;;;;;;15.55;13.10;;;;;;;12.81;31.87;100968.53;2669347;87;21072;-67
2022/03/13 14:30:47;;;;;;;16.10;11.85;;;;;;;12.87;32.35;100965.35;2625526;90;21049;-67
2022/03/13 14:34:49;;;;;;;15.83;11.18;;;;;;;12.85;32.47;100968.64;2629481;90;21073;-67
2022/03/13 14:38:50;;;;;;;13.65;10.63;;;;;;;12.82;31.83;100967.55;2702106;88;21043;-67
2022/03/13 14:42:52;;;;;;;11.95;10.28;;;;;;;12.82;31.33;100964.88;2701968;87;21063;-67
2022/03/13 14:46:54;;;;;;;36.65;14.43;;;;;;;12.80;31.33;100972.17;2669761;88;21077;-67
2022/03/13 14:50:56;;;;;;;13.83;11.38;;;;;;;12.75;32.22;100971.20;2680798;89;22729;-67
2022/03/13 14:54:58;;;;;;;20.15;13.08;;;;;;;12.84;31.53;100965.61;2672136;89;21070;-67
2022/03/13 14:58:59;;;;;;;22.90;13.93;;;;;;;12.80;31.73;100960.98;2680830;89;21101;-66
2022/03/13 15:03:01;;;;;;;18.73;12.63;;;;;;;12.79;31.28;100961.12;2690169;88;21063;-68
2022/03/13 15:07:04;;;;;;;22.37;13.18;;;;;;;12.79;30.46;100962.47;2691145;88;21052;-67
2022/03/13 15:11:05;;;;;;;19.42;15.30;;;;;;;12.69;30.36;100963.19;2690895;88;21083;-67
2022/03/13 15:15:13;;;;;;;21.50;14.98;;;;;;;12.71;31.00;100961.75;2691379;88;21112;-68
2022/03/13 15:19:12;;;;;;;15.75;12.65;;;;;;;12.73;31.79;100958.94;2690884;88;21058;-67
2022/03/13 15:23:14;;;;;;;22.45;13.32;;;;;;;12.63;30.43;100962.83;2691783;88;21012;-67
2022/03/13 15:27:15;;;;;;;14.45;11.73;;;;;;;12.54;30.66;100959.07;2647568;87;21050;-67
2022/03/13 15:31:18;;;;;;;26.12;17.50;;;;;;;12.42;30.31;100963.56;2609967;91;21105;-67
2022/03/13 15:35:20;;;;;;;23.95;15.32;;;;;;;12.40;30.63;100966.38;2637666;90;21096;-67
2022/03/13 15:39:24;;;;;;;19.35;14.70;;;;;;;12.31;30.67;100972.41;2688735;88;21400;-67
2022/03/13 15:43:26;;;;;;;16.62;12.65;;;;;;;12.35;30.83;100970.37;2688817;88;21045;-67
2022/03/13 15:47:27;;;;;;;23.30;16.57;;;;;;;12.27;31.20;100966.97;2707197;87;21107;-67
2022/03/13 15:51:29;;;;;;;23.55;15.25;;;;;;;12.18;31.11;100967.66;2613003;90;21041;-67
2022/03/13 15:55:31;;;;;;;23.30;16.50;;;;;;;12.09;31.09;100980.76;2669946;89;21642;-67
2022/03/13 15:59:32;;;;;;;24.52;17.00;;;;;;;12.02;31.54;100980.88;2652421;90;21034;-68
2022/03/13 16:03:35;;;;;;;26.37;18.73;;;;;;;11.94;31.97;100984.56;2625876;90;21085;-67
2022/03/13 16:07:36;;;;;;;39.00;25.80;;;;;;;11.78;31.93;100975.57;2669849;89;21109;-66
2022/03/13 16:11:38;;;;;;;29.65;22.10;;;;;;;11.69;31.49;100975.78;2636305;90;21073;-67
2022/03/13 16:15:39;;;;;;;26.42;18.12;;;;;;;11.58;32.39;100978.76;2585379;92;21337;-66
2022/03/13 16:19:48;;;;;;;27.30;20.72;;;;;;;11.45;32.78;100978.00;2628380;89;21076;-67
2022/03/13 16:23:45;;;;;;;29.30;19.57;;;;;;;11.28;32.73;100976.57;2585531;91;21061;-67
2022/03/13 16:27:46;;;;;;;28.47;20.02;;;;;;;11.09;33.63;100971.77;2627843;90;21060;-67
2022/03/13 16:31:48;;;;;;;33.35;21.25;;;;;;;10.87;33.72;100969.34;2610696;90;21116;-67
2022/03/13 16:35:50;;;;;;;27.25;19.20;;;;;;;10.66;34.13;100977.91;2610742;91;21403;-66
2022/03/13 16:39:54;;;;;;;32.88;20.60;;;;;;;10.50;34.54;100981.28;2610697;91;21098;-67
2022/03/13 16:43:56;;;;;;;27.77;19.80;;;;;;;10.32;34.50;100977.59;2610796;91;21169;-67
2022/03/13 16:48:02;;;;;;;28.50;22.00;;;;;;;10.12;34.24;100980.28;2610803;91;21081;-67
2022/03/13 16:52:05;;;;;;;33.63;23.15;;;;;;;9.92;34.46;100971.04;2618377;90;21109;-67
2022/03/13 16:56:07;;;;;;;41.53;27.02;;;;;;;9.76;34.71;100973.41;2651769;90;21057;-67
2022/03/13 17:00:11;;;;;;;34.88;24.98;;;;;;;9.65;34.67;100982.59;2651831;90;21137;-67
2022/03/13 17:04:13;;;;;;;43.30;27.10;;;;;;;9.50;34.64;100991.94;2651748;90;21085;-67
2022/03/13 17:08:15;;;;;;;45.38;29.75;;;;;;;9.41;34.79;100995.19;2651808;90;21074;-66
2022/03/13 17:12:16;;;;;;;51.80;33.60;;;;;;;9.29;35.05;100997.72;2651712;90;21065;-66
2022/03/13 17:16:18;;;;;;;82.97;55.12;;;;;;;9.19;35.24;101003.23;2651689;90;21029;-66
2022/03/13 17:20:21;;;;;;;58.08;35.28;;;;;;;9.06;35.31;101010.30;2651942;88;21106;-67
2022/03/13 17:24:23;;;;;;;59.20;36.25;;;;;;;8.83;36.11;101008.61;2651571;90;21053;-67
2022/03/13 17:28:25;;;;;;;51.53;33.78;;;;;;;8.72;36.13;101005.30;2651734;90;21057;-67
2022/03/13 17:32:26;;;;;;;47.60;29.98;;;;;;;8.61;36.75;101008.62;2651532;90;21141;-67
2022/03/13 17:36:28;;;;;;;43.40;29.77;;;;;;;8.48;37.26;101005.86;2651715;90;21101;-67
2022/03/13 17:40:29;;;;;;;39.20;28.90;;;;;;;8.32;37.90;101007.28;2651563;90;21073;-67
2022/03/13 17:44:32;;;;;;;37.42;26.93;;;;;;;8.06;38.61;101015.47;2635819;88;21133;-67
2022/03/13 17:48:34;;;;;;;79.32;54.30;;;;;;;7.88;37.58;101022.72;2610140;91;21191;-67
2022/03/13 17:52:36;;;;;;;54.60;36.68;;;;;;;7.84;38.13;101017.58;2610242;91;21121;-67
2022/03/13 17:56:39;;;;;;;83.58;59.98;;;;;;;7.78;38.72;101027.70;2610277;90;21096;-67
2022/03/13 18:00:41;;;;;;;62.70;41.20;;;;;;;7.63;39.06;101031.62;2609820;91;21094;-67
2022/03/13 18:04:43;;;;;;;78.80;53.33;;;;;;;7.47;39.08;101035.62;2626025;90;21127;-66
2022/03/13 18:08:45;;;;;;;50.75;33.65;;;;;;;7.36;38.80;101041.50;2647016;90;21075;-66
2022/03/13 18:12:46;;;;;;;52.53;38.50;;;;;;;7.31;38.67;101038.27;2646833;90;21098;-66
2022/03/13 18:16:48;;;;;;;46.02;36.68;;;;;;;7.29;38.54;101038.82;2653005;87;21126;-67
2022/03/13 18:20:49;;;;;;;54.48;31.33;;;;;;;7.31;38.69;101046.20;2673628;87;21058;-65
2022/03/13 18:24:51;;;;;;;46.02;29.37;;;;;;;7.22;39.86;101044.09;2627290;90;21520;-67
2022/03/13 18:28:53;;;;;;;46.50;27.70;;;;;;;7.10;39.25;101045.13;2627838;87;21093;-66
2022/03/13 18:32:55;;;;;;;42.58;29.98;;;;;;;7.17;38.73;101044.78;2616760;90;21106;-66